»·PEaware :: AAL211 KPSP-KLAS

AAL211 :: KPSP-KLAS

FLIGHT INFORMATION

Flight Status: Arrived
Operator:
American Airlines
More flights by this operator :: More flights under this callsign
Pilot: Robert M. (1649)
Aircraft: BOEING 737-800
(B738)
More flights by this aircraft type
Origin: KPSP Palm Springs Intl
United States
Destination: KLAS McCarran Intl
United States
More flights between these airports :: More routes between these airports
Route: CATH1 PSP V370 TNP KEPEC4
File this flight plan on PilotEdge
Remarks:
Altitude:
(Current/Filed)
25,000ft
Speed:
(Current/Filed)
450kts
Departed: 15-Jun-17 07:42 PM
Arrived: 15-Jun-17 08:18 PM
Distance/Time
Traveled:
151nm/0:36
Distance/Time
To Go:
Arrived

Flight Plot

Page will automatically refresh every two minutes.

Flight plan parsing failed; only flown route is shown


Map Options




Map Legend


Flown Route
Filed Route
Departure Airport
Arrival Airport
Navaid (VOR, NDB)
Fix

Horizontal Profiles

Position Reports

Time Latitude Longitude Heading Altitude Ground
Speed
15-Jun-17 19:33 33.823828 -116.506542 205 486ft 0kts
15-Jun-17 19:34 33.823828 -116.506542 205 486ft 0kts
15-Jun-17 19:35 33.823828 -116.506542 205 486ft 0kts
15-Jun-17 19:36 33.823828 -116.506542 205 486ft 0kts
15-Jun-17 19:37 33.823828 -116.506542 205 486ft 0kts
15-Jun-17 19:38 33.823828 -116.506542 205 486ft 0kts
15-Jun-17 19:39 33.823828 -116.506542 205 486ft 0kts
15-Jun-17 19:40 33.824228 -116.506359 167 486ft 2kts
15-Jun-17 19:41 33.824214 -116.506318 146 486ft 9kts
15-Jun-17 19:42 33.822204 -116.502927 140 486ft 16kts
15-Jun-17 19:43 33.818509 -116.498538 61 486ft 9kts
15-Jun-17 19:44 33.827710 -116.505933 322 489ft 158kts
15-Jun-17 19:45 33.873023 -116.546853 331 4178ft 216kts
15-Jun-17 19:46 33.910356 -116.506481 110 7588ft 237kts
15-Jun-17 19:47 33.922862 -116.431398 59 10770ft 269kts
15-Jun-17 19:48 33.953818 -116.338532 70 13395ft 330kts
15-Jun-17 19:49 33.986118 -116.223280 71 15658ft 395kts
15-Jun-17 19:50 34.022273 -116.093983 71 18640ft 417kts
15-Jun-17 19:51 34.060102 -115.958097 71 21261ft 437kts
15-Jun-17 19:52 34.099403 -115.816417 71 23525ft 454kts
15-Jun-17 19:53 34.174291 -115.695755 35 24871ft 465kts
15-Jun-17 19:54 34.270787 -115.592108 42 24907ft 465kts
15-Jun-17 19:55 34.376346 -115.506289 19 24924ft 460kts
15-Jun-17 19:56 34.496656 -115.454754 17 24914ft 458kts
15-Jun-17 19:57 34.617129 -115.402367 18 24905ft 459kts
15-Jun-17 19:58 34.737352 -115.350605 13 24891ft 458kts
15-Jun-17 19:59 34.861310 -115.359394 341 24882ft 452kts
15-Jun-17 20:00 34.979589 -115.406617 340 24872ft 430kts
15-Jun-17 20:01 35.090402 -115.450326 341 22892ft 411kts
15-Jun-17 20:02 35.197611 -115.492349 341 20857ft 398kts
15-Jun-17 20:03 35.301496 -115.533101 341 18872ft 387kts
15-Jun-17 20:04 35.402786 -115.572833 341 16929ft 376kts
15-Jun-17 20:05 35.500383 -115.611115 341 15118ft 358kts
15-Jun-17 20:06 35.592724 -115.647331 341 13722ft 333kts
15-Jun-17 20:07 35.676938 -115.666542 18 13124ft 302kts
15-Jun-17 20:08 35.740587 -115.597277 45 13034ft 311kts
15-Jun-17 20:10 35.820063 -115.571552 0 13037ft 305kts
15-Jun-17 20:11 35.904430 -115.567376 1 13040ft 305kts
15-Jun-17 20:12 35.980729 -115.532116 59 12675ft 315kts
15-Jun-17 20:13 36.013094 -115.432697 68 11483ft 309kts
15-Jun-17 20:14 36.029149 -115.334965 97 10570ft 287kts
15-Jun-17 20:15 36.022621 -115.234842 93 8746ft 279kts
15-Jun-17 20:16 36.023916 -115.150365 86 7027ft 228kts
15-Jun-17 20:17 36.026286 -115.079318 90 5292ft 190kts
15-Jun-17 20:18 36.034661 -115.023663 36 3687ft 151kts
15-Jun-17 20:19 36.067646 -115.039554 294 2904ft 156kts
15-Jun-17 20:20 36.073752 -115.096804 267 2821ft 180kts
15-Jun-17 20:21 36.073682 -115.142695 282 2124ft 33kts
15-Jun-17 20:22 36.077479 -115.146632 339 2124ft 15kts
15-Jun-17 20:23 36.078964 -115.147754 337 2124ft 0kts
15-Jun-17 20:24 36.080238 -115.147417 66 2124ft 0kts
15-Jun-17 20:25 36.080238 -115.147417 66 2124ft 0kts
15-Jun-17 20:26 36.080238 -115.147417 66 2124ft 0kts
15-Jun-17 20:27 36.080238 -115.147417 66 2124ft 0kts
15-Jun-17 20:28 36.080238 -115.147417 66 2124ft 0kts
15-Jun-17 20:29 36.080238 -115.147417 66 2124ft 0kts
15-Jun-17 20:30 36.080238 -115.147417 66 2124ft 0kts
15-Jun-17 20:31 36.080238 -115.147417 66 2124ft 0kts
15-Jun-17 20:32 36.080238 -115.147417 66 2124ft 0kts
15-Jun-17 20:33 36.080238 -115.147417 66 2124ft 0kts
15-Jun-17 20:34 36.080238 -115.147417 66 2124ft 0kts
15-Jun-17 20:35 36.080238 -115.147417 66 2124ft 0kts

Navigation Log

Ident Type
Flight plan parsing failed, navigation log unavailable